sensor_id;sensor_type;location;lat;lon;timestamp;P1;durP1;ratioP1;P2;durP2;ratioP2
15425;SDS011;7812;50.072;7.036;2023-07-31T00:00:51;3.63;;;1.97;;
15425;SDS011;7812;50.072;7.036;2023-07-31T00:03:17;4.33;;;2.17;;
15425;SDS011;7812;50.072;7.036;2023-07-31T00:05:42;4.33;;;2.23;;
15425;SDS011;7812;50.072;7.036;2023-07-31T00:08:08;2.57;;;2.07;;
15425;SDS011;7812;50.072;7.036;2023-07-31T00:10:34;2.80;;;1.83;;
15425;SDS011;7812;50.072;7.036;2023-07-31T00:13:00;4.47;;;2.27;;
15425;SDS011;7812;50.072;7.036;2023-07-31T00:15:25;2.43;;;1.83;;
15425;SDS011;7812;50.072;7.036;2023-07-31T00:17:51;3.60;;;2.33;;
15425;SDS011;7812;50.072;7.036;2023-07-31T00:20:17;2.60;;;2.00;;
15425;SDS011;7812;50.072;7.036;2023-07-31T00:22:42;2.80;;;2.23;;
15425;SDS011;7812;50.072;7.036;2023-07-31T00:25:08;4.10;;;2.33;;
15425;SDS011;7812;50.072;7.036;2023-07-31T00:27:34;3.40;;;2.07;;
15425;SDS011;7812;50.072;7.036;2023-07-31T00:29:59;5.30;;;2.70;;
15425;SDS011;7812;50.072;7.036;2023-07-31T00:32:25;2.40;;;1.90;;
15425;SDS011;7812;50.072;7.036;2023-07-31T00:34:50;5.17;;;2.27;;
15425;SDS011;7812;50.072;7.036;2023-07-31T00:37:16;2.37;;;2.03;;
15425;SDS011;7812;50.072;7.036;2023-07-31T00:39:42;3.90;;;2.33;;
15425;SDS011;7812;50.072;7.036;2023-07-31T00:42:07;5.67;;;2.77;;
15425;SDS011;7812;50.072;7.036;2023-07-31T00:44:33;3.20;;;2.20;;
15425;SDS011;7812;50.072;7.036;2023-07-31T00:46:59;3.60;;;2.10;;
15425;SDS011;7812;50.072;7.036;2023-07-31T00:49:25;2.70;;;2.20;;
15425;SDS011;7812;50.072;7.036;2023-07-31T00:51:51;4.20;;;2.27;;
15425;SDS011;7812;50.072;7.036;2023-07-31T00:54:18;3.57;;;2.00;;
15425;SDS011;7812;50.072;7.036;2023-07-31T00:56:44;3.37;;;2.10;;
15425;SDS011;7812;50.072;7.036;2023-07-31T00:59:13;3.23;;;2.10;;
15425;SDS011;7812;50.072;7.036;2023-07-31T01:01:39;3.03;;;2.10;;
15425;SDS011;7812;50.072;7.036;2023-07-31T01:04:05;3.77;;;1.97;;
15425;SDS011;7812;50.072;7.036;2023-07-31T01:12:00;3.67;;;2.03;;
15425;SDS011;7812;50.072;7.036;2023-07-31T01:14:27;4.13;;;2.30;;
15425;SDS011;7812;50.072;7.036;2023-07-31T01:16:53;2.70;;;2.30;;
15425;SDS011;7812;50.072;7.036;2023-07-31T01:19:21;4.63;;;2.10;;
15425;SDS011;7812;50.072;7.036;2023-07-31T01:27:04;2.97;;;2.10;;
15425;SDS011;7812;50.072;7.036;2023-07-31T01:29:49;3.93;;;2.00;;
15425;SDS011;7812;50.072;7.036;2023-07-31T01:32:20;2.13;;;1.93;;
15425;SDS011;7812;50.072;7.036;2023-07-31T01:34:47;2.40;;;1.90;;
15425;SDS011;7812;50.072;7.036;2023-07-31T01:37:14;4.03;;;2.20;;
15425;SDS011;7812;50.072;7.036;2023-07-31T01:39:40;2.90;;;1.90;;
15425;SDS011;7812;50.072;7.036;2023-07-31T01:42:05;3.30;;;1.90;;
15425;SDS011;7812;50.072;7.036;2023-07-31T01:44:32;4.47;;;1.97;;
15425;SDS011;7812;50.072;7.036;2023-07-31T01:46:58;3.00;;;1.90;;
15425;SDS011;7812;50.072;7.036;2023-07-31T01:49:25;4.17;;;2.10;;
15425;SDS011;7812;50.072;7.036;2023-07-31T01:51:51;2.47;;;1.80;;
15425;SDS011;7812;50.072;7.036;2023-07-31T01:54:16;3.20;;;2.20;;
15425;SDS011;7812;50.072;7.036;2023-07-31T01:56:42;2.70;;;2.03;;
15425;SDS011;7812;50.072;7.036;2023-07-31T01:59:08;3.83;;;1.67;;
15425;SDS011;7812;50.072;7.036;2023-07-31T02:01:33;2.70;;;1.97;;
15425;SDS011;7812;50.072;7.036;2023-07-31T02:03:59;4.27;;;1.80;;
15425;SDS011;7812;50.072;7.036;2023-07-31T02:06:25;2.73;;;1.90;;
15425;SDS011;7812;50.072;7.036;2023-07-31T02:08:50;2.33;;;1.90;;
15425;SDS011;7812;50.072;7.036;2023-07-31T02:11:16;2.57;;;1.90;;
15425;SDS011;7812;50.072;7.036;2023-07-31T02:13:42;2.90;;;2.10;;
15425;SDS011;7812;50.072;7.036;2023-07-31T02:16:07;3.50;;;2.03;;
15425;SDS011;7812;50.072;7.036;2023-07-31T02:18:33;4.40;;;2.00;;
15425;SDS011;7812;50.072;7.036;2023-07-31T02:20:59;4.23;;;2.23;;
15425;SDS011;7812;50.072;7.036;2023-07-31T02:23:25;2.60;;;1.90;;
15425;SDS011;7812;50.072;7.036;2023-07-31T02:25:51;6.37;;;2.10;;
15425;SDS011;7812;50.072;7.036;2023-07-31T02:28:16;2.00;;;1.80;;
15425;SDS011;7812;50.072;7.036;2023-07-31T02:30:45;4.53;;;2.13;;
15425;SDS011;7812;50.072;7.036;2023-07-31T02:33:14;4.57;;;2.10;;
15425;SDS011;7812;50.072;7.036;2023-07-31T02:35:41;3.90;;;2.07;;
15425;SDS011;7812;50.072;7.036;2023-07-31T02:38:07;2.03;;;1.53;;
15425;SDS011;7812;50.072;7.036;2023-07-31T02:40:32;2.97;;;1.60;;
15425;SDS011;7812;50.072;7.036;2023-07-31T02:42:58;3.90;;;1.63;;
15425;SDS011;7812;50.072;7.036;2023-07-31T02:45:24;2.43;;;1.90;;
15425;SDS011;7812;50.072;7.036;2023-07-31T02:47:49;2.87;;;1.77;;
15425;SDS011;7812;50.072;7.036;2023-07-31T02:50:15;2.43;;;1.87;;
15425;SDS011;7812;50.072;7.036;2023-07-31T02:52:40;1.97;;;1.77;;
15425;SDS011;7812;50.072;7.036;2023-07-31T02:55:06;2.53;;;1.77;;
15425;SDS011;7812;50.072;7.036;2023-07-31T02:57:32;2.77;;;1.93;;
15425;SDS011;7812;50.072;7.036;2023-07-31T02:59:58;2.03;;;1.70;;
15425;SDS011;7812;50.072;7.036;2023-07-31T03:02:23;2.23;;;1.60;;
15425;SDS011;7812;50.072;7.036;2023-07-31T03:04:50;2.77;;;1.90;;
15425;SDS011;7812;50.072;7.036;2023-07-31T03:07:16;2.53;;;1.90;;
15425;SDS011;7812;50.072;7.036;2023-07-31T03:09:41;4.83;;;1.63;;
15425;SDS011;7812;50.072;7.036;2023-07-31T03:12:07;2.80;;;2.30;;
15425;SDS011;7812;50.072;7.036;2023-07-31T03:14:33;3.13;;;1.87;;
15425;SDS011;7812;50.072;7.036;2023-07-31T03:16:59;3.37;;;2.43;;
15425;SDS011;7812;50.072;7.036;2023-07-31T03:19:25;2.67;;;2.00;;
15425;SDS011;7812;50.072;7.036;2023-07-31T03:21:50;2.80;;;1.87;;
15425;SDS011;7812;50.072;7.036;2023-07-31T03:24:16;4.30;;;2.20;;
15425;SDS011;7812;50.072;7.036;2023-07-31T03:26:42;5.47;;;2.20;;
15425;SDS011;7812;50.072;7.036;2023-07-31T03:29:07;2.77;;;2.00;;
15425;SDS011;7812;50.072;7.036;2023-07-31T03:31:33;3.77;;;2.40;;
15425;SDS011;7812;50.072;7.036;2023-07-31T03:33:59;2.27;;;2.00;;
15425;SDS011;7812;50.072;7.036;2023-07-31T03:36:24;3.37;;;2.20;;
15425;SDS011;7812;50.072;7.036;2023-07-31T03:38:51;2.80;;;2.20;;
15425;SDS011;7812;50.072;7.036;2023-07-31T03:41:17;3.93;;;2.37;;
15425;SDS011;7812;50.072;7.036;2023-07-31T03:43:43;3.73;;;2.00;;
15425;SDS011;7812;50.072;7.036;2023-07-31T03:46:10;2.07;;;1.80;;
15425;SDS011;7812;50.072;7.036;2023-07-31T03:48:36;4.43;;;2.20;;
15425;SDS011;7812;50.072;7.036;2023-07-31T03:51:01;3.20;;;1.87;;
15425;SDS011;7812;50.072;7.036;2023-07-31T03:53:27;4.53;;;2.23;;
15425;SDS011;7812;50.072;7.036;2023-07-31T03:55:52;4.17;;;2.37;;
15425;SDS011;7812;50.072;7.036;2023-07-31T03:58:18;6.13;;;2.40;;
15425;SDS011;7812;50.072;7.036;2023-07-31T04:00:45;3.50;;;2.03;;
15425;SDS011;7812;50.072;7.036;2023-07-31T04:03:10;4.07;;;2.27;;
15425;SDS011;7812;50.072;7.036;2023-07-31T04:05:37;3.63;;;2.03;;
15425;SDS011;7812;50.072;7.036;2023-07-31T04:08:04;3.40;;;2.47;;
15425;SDS011;7812;50.072;7.036;2023-07-31T04:10:30;3.77;;;2.50;;
15425;SDS011;7812;50.072;7.036;2023-07-31T04:12:58;3.00;;;2.30;;
15425;SDS011;7812;50.072;7.036;2023-07-31T04:15:24;5.00;;;2.50;;
15425;SDS011;7812;50.072;7.036;2023-07-31T04:17:50;4.03;;;2.17;;
15425;SDS011;7812;50.072;7.036;2023-07-31T04:20:15;4.13;;;2.20;;
15425;SDS011;7812;50.072;7.036;2023-07-31T04:22:41;3.10;;;2.20;;
15425;SDS011;7812;50.072;7.036;2023-07-31T04:25:07;4.70;;;2.70;;
15425;SDS011;7812;50.072;7.036;2023-07-31T04:27:32;4.87;;;2.00;;
15425;SDS011;7812;50.072;7.036;2023-07-31T04:29:58;3.47;;;2.60;;
15425;SDS011;7812;50.072;7.036;2023-07-31T04:32:24;3.30;;;2.20;;
15425;SDS011;7812;50.072;7.036;2023-07-31T04:34:49;4.10;;;2.13;;
15425;SDS011;7812;50.072;7.036;2023-07-31T04:37:15;4.37;;;2.47;;
15425;SDS011;7812;50.072;7.036;2023-07-31T04:39:40;4.50;;;2.53;;
15425;SDS011;7812;50.072;7.036;2023-07-31T04:42:06;5.63;;;2.60;;
15425;SDS011;7812;50.072;7.036;2023-07-31T04:44:32;4.47;;;2.30;;
15425;SDS011;7812;50.072;7.036;2023-07-31T04:46:57;4.30;;;2.50;;
15425;SDS011;7812;50.072;7.036;2023-07-31T04:49:23;6.07;;;2.43;;
15425;SDS011;7812;50.072;7.036;2023-07-31T04:51:49;4.60;;;2.60;;
15425;SDS011;7812;50.072;7.036;2023-07-31T04:54:14;4.87;;;2.37;;
15425;SDS011;7812;50.072;7.036;2023-07-31T04:56:40;5.20;;;2.50;;
15425;SDS011;7812;50.072;7.036;2023-07-31T04:59:06;3.57;;;2.37;;
15425;SDS011;7812;50.072;7.036;2023-07-31T05:01:32;3.10;;;2.33;;
15425;SDS011;7812;50.072;7.036;2023-07-31T05:03:57;5.33;;;2.50;;
15425;SDS011;7812;50.072;7.036;2023-07-31T05:06:23;4.07;;;2.50;;
15425;SDS011;7812;50.072;7.036;2023-07-31T05:08:49;4.77;;;2.57;;
15425;SDS011;7812;50.072;7.036;2023-07-31T05:11:14;5.97;;;2.40;;
15425;SDS011;7812;50.072;7.036;2023-07-31T05:13:40;4.97;;;2.47;;
15425;SDS011;7812;50.072;7.036;2023-07-31T05:16:06;6.77;;;2.60;;
15425;SDS011;7812;50.072;7.036;2023-07-31T05:18:31;5.37;;;2.47;;
15425;SDS011;7812;50.072;7.036;2023-07-31T05:20:57;4.63;;;2.30;;
15425;SDS011;7812;50.072;7.036;2023-07-31T05:23:23;4.60;;;2.57;;
15425;SDS011;7812;50.072;7.036;2023-07-31T05:25:48;4.60;;;2.70;;
15425;SDS011;7812;50.072;7.036;2023-07-31T05:28:14;5.20;;;2.73;;
15425;SDS011;7812;50.072;7.036;2023-07-31T05:30:39;3.97;;;2.80;;
15425;SDS011;7812;50.072;7.036;2023-07-31T05:33:05;5.63;;;2.77;;
15425;SDS011;7812;50.072;7.036;2023-07-31T05:35:32;5.37;;;2.73;;
15425;SDS011;7812;50.072;7.036;2023-07-31T05:37:57;5.27;;;2.80;;
15425;SDS011;7812;50.072;7.036;2023-07-31T05:40:23;4.17;;;2.87;;
15425;SDS011;7812;50.072;7.036;2023-07-31T05:42:49;5.90;;;2.97;;
15425;SDS011;7812;50.072;7.036;2023-07-31T05:45:14;3.93;;;2.50;;
15425;SDS011;7812;50.072;7.036;2023-07-31T05:47:40;4.07;;;2.60;;
15425;SDS011;7812;50.072;7.036;2023-07-31T05:50:06;3.60;;;2.30;;
15425;SDS011;7812;50.072;7.036;2023-07-31T05:52:31;8.23;;;3.27;;
15425;SDS011;7812;50.072;7.036;2023-07-31T05:54:57;8.17;;;2.67;;
15425;SDS011;7812;50.072;7.036;2023-07-31T05:57:23;4.53;;;2.83;;
15425;SDS011;7812;50.072;7.036;2023-07-31T05:59:48;6.00;;;2.80;;
15425;SDS011;7812;50.072;7.036;2023-07-31T06:02:14;4.23;;;2.70;;
15425;SDS011;7812;50.072;7.036;2023-07-31T06:04:41;4.07;;;2.37;;
15425;SDS011;7812;50.072;7.036;2023-07-31T06:07:07;7.50;;;3.00;;
15425;SDS011;7812;50.072;7.036;2023-07-31T06:09:32;4.50;;;2.73;;
15425;SDS011;7812;50.072;7.036;2023-07-31T06:11:58;4.20;;;2.70;;
15425;SDS011;7812;50.072;7.036;2023-07-31T06:14:23;5.47;;;2.83;;
15425;SDS011;7812;50.072;7.036;2023-07-31T06:16:49;3.13;;;2.23;;
15425;SDS011;7812;50.072;7.036;2023-07-31T06:19:15;3.43;;;2.40;;
15425;SDS011;7812;50.072;7.036;2023-07-31T06:21:40;4.33;;;2.53;;
15425;SDS011;7812;50.072;7.036;2023-07-31T06:24:08;4.87;;;3.00;;
15425;SDS011;7812;50.072;7.036;2023-07-31T06:26:36;5.27;;;2.87;;
15425;SDS011;7812;50.072;7.036;2023-07-31T06:29:02;5.27;;;2.90;;
15425;SDS011;7812;50.072;7.036;2023-07-31T06:31:28;6.67;;;2.73;;
15425;SDS011;7812;50.072;7.036;2023-07-31T06:33:54;4.43;;;2.60;;
15425;SDS011;7812;50.072;7.036;2023-07-31T06:36:19;4.70;;;2.43;;
15425;SDS011;7812;50.072;7.036;2023-07-31T06:38:45;4.43;;;2.70;;
15425;SDS011;7812;50.072;7.036;2023-07-31T06:41:11;4.73;;;2.73;;
15425;SDS011;7812;50.072;7.036;2023-07-31T06:43:36;3.67;;;2.47;;
15425;SDS011;7812;50.072;7.036;2023-07-31T06:46:06;4.23;;;2.47;;
15425;SDS011;7812;50.072;7.036;2023-07-31T06:48:32;6.17;;;2.73;;
15425;SDS011;7812;50.072;7.036;2023-07-31T06:50:58;3.50;;;2.30;;
15425;SDS011;7812;50.072;7.036;2023-07-31T06:53:24;5.17;;;2.63;;
15425;SDS011;7812;50.072;7.036;2023-07-31T06:55:49;4.03;;;2.30;;
15425;SDS011;7812;50.072;7.036;2023-07-31T06:58:17;5.17;;;2.80;;
15425;SDS011;7812;50.072;7.036;2023-07-31T07:00:43;4.30;;;2.77;;
15425;SDS011;7812;50.072;7.036;2023-07-31T07:03:08;3.73;;;2.47;;
15425;SDS011;7812;50.072;7.036;2023-07-31T07:05:34;2.87;;;2.30;;
15425;SDS011;7812;50.072;7.036;2023-07-31T07:08:00;6.37;;;2.30;;
15425;SDS011;7812;50.072;7.036;2023-07-31T07:10:25;3.60;;;2.23;;
15425;SDS011;7812;50.072;7.036;2023-07-31T07:12:51;4.50;;;2.20;;
15425;SDS011;7812;50.072;7.036;2023-07-31T07:15:17;4.43;;;2.33;;
15425;SDS011;7812;50.072;7.036;2023-07-31T07:17:43;4.67;;;2.53;;
15425;SDS011;7812;50.072;7.036;2023-07-31T07:20:12;4.73;;;2.47;;
15425;SDS011;7812;50.072;7.036;2023-07-31T07:22:37;3.87;;;2.50;;
15425;SDS011;7812;50.072;7.036;2023-07-31T07:25:04;4.70;;;2.90;;
15425;SDS011;7812;50.072;7.036;2023-07-31T07:27:30;3.90;;;2.40;;
15425;SDS011;7812;50.072;7.036;2023-07-31T07:29:55;5.53;;;2.23;;
15425;SDS011;7812;50.072;7.036;2023-07-31T07:32:21;3.87;;;2.67;;
15425;SDS011;7812;50.072;7.036;2023-07-31T07:34:47;4.23;;;2.20;;
15425;SDS011;7812;50.072;7.036;2023-07-31T07:37:13;2.77;;;2.20;;
15425;SDS011;7812;50.072;7.036;2023-07-31T07:39:39;4.73;;;2.57;;
15425;SDS011;7812;50.072;7.036;2023-07-31T07:42:05;4.90;;;2.63;;
15425;SDS011;7812;50.072;7.036;2023-07-31T07:44:30;3.90;;;2.37;;
15425;SDS011;7812;50.072;7.036;2023-07-31T07:46:56;5.23;;;2.60;;
15425;SDS011;7812;50.072;7.036;2023-07-31T07:49:23;3.53;;;2.30;;
15425;SDS011;7812;50.072;7.036;2023-07-31T07:51:49;4.27;;;2.30;;
15425;SDS011;7812;50.072;7.036;2023-07-31T07:54:15;3.60;;;2.53;;
15425;SDS011;7812;50.072;7.036;2023-07-31T07:56:42;5.30;;;2.63;;
15425;SDS011;7812;50.072;7.036;2023-07-31T07:59:07;5.47;;;2.57;;
15425;SDS011;7812;50.072;7.036;2023-07-31T08:01:33;3.27;;;2.13;;
15425;SDS011;7812;50.072;7.036;2023-07-31T08:03:59;3.87;;;2.50;;
15425;SDS011;7812;50.072;7.036;2023-07-31T08:06:25;5.33;;;2.27;;
15425;SDS011;7812;50.072;7.036;2023-07-31T08:08:50;4.70;;;2.53;;
15425;SDS011;7812;50.072;7.036;2023-07-31T08:11:16;3.90;;;2.07;;
15425;SDS011;7812;50.072;7.036;2023-07-31T08:13:41;3.70;;;2.27;;
15425;SDS011;7812;50.072;7.036;2023-07-31T08:16:07;3.80;;;2.20;;
15425;SDS011;7812;50.072;7.036;2023-07-31T08:18:33;4.50;;;2.40;;
15425;SDS011;7812;50.072;7.036;2023-07-31T08:20:59;3.80;;;2.33;;
15425;SDS011;7812;50.072;7.036;2023-07-31T08:23:29;5.40;;;2.47;;
15425;SDS011;7812;50.072;7.036;2023-07-31T08:25:55;3.50;;;2.23;;
15425;SDS011;7812;50.072;7.036;2023-07-31T08:28:21;5.73;;;2.47;;
15425;SDS011;7812;50.072;7.036;2023-07-31T08:30:46;4.80;;;2.57;;
15425;SDS011;7812;50.072;7.036;2023-07-31T08:33:12;3.80;;;2.37;;
15425;SDS011;7812;50.072;7.036;2023-07-31T08:35:38;6.00;;;2.23;;
15425;SDS011;7812;50.072;7.036;2023-07-31T08:38:03;3.80;;;2.50;;
15425;SDS011;7812;50.072;7.036;2023-07-31T08:40:29;5.63;;;2.70;;
15425;SDS011;7812;50.072;7.036;2023-07-31T08:42:55;3.73;;;2.20;;
15425;SDS011;7812;50.072;7.036;2023-07-31T08:45:27;5.50;;;2.20;;
15425;SDS011;7812;50.072;7.036;2023-07-31T08:47:54;5.73;;;2.50;;
15425;SDS011;7812;50.072;7.036;2023-07-31T08:50:21;5.20;;;2.37;;
15425;SDS011;7812;50.072;7.036;2023-07-31T08:52:47;4.87;;;2.53;;
15425;SDS011;7812;50.072;7.036;2023-07-31T08:55:14;4.37;;;2.30;;
15425;SDS011;7812;50.072;7.036;2023-07-31T08:57:41;2.80;;;2.13;;
15425;SDS011;7812;50.072;7.036;2023-07-31T09:00:08;4.73;;;2.13;;
15425;SDS011;7812;50.072;7.036;2023-07-31T09:02:41;3.57;;;2.27;;
15425;SDS011;7812;50.072;7.036;2023-07-31T09:05:30;2.90;;;2.07;;
15425;SDS011;7812;50.072;7.036;2023-07-31T09:07:56;3.37;;;2.10;;
15425;SDS011;7812;50.072;7.036;2023-07-31T09:10:23;3.97;;;2.20;;
15425;SDS011;7812;50.072;7.036;2023-07-31T09:12:49;3.87;;;2.60;;
15425;SDS011;7812;50.072;7.036;2023-07-31T09:15:17;3.80;;;2.40;;
15425;SDS011;7812;50.072;7.036;2023-07-31T09:17:43;3.20;;;2.67;;
15425;SDS011;7812;50.072;7.036;2023-07-31T09:20:19;4.23;;;2.40;;
15425;SDS011;7812;50.072;7.036;2023-07-31T09:22:46;3.03;;;2.00;;
15425;SDS011;7812;50.072;7.036;2023-07-31T09:25:16;4.63;;;2.73;;
15425;SDS011;7812;50.072;7.036;2023-07-31T09:30:46;2.10;;;1.90;;
15425;SDS011;7812;50.072;7.036;2023-07-31T09:33:16;2.53;;;2.17;;
15425;SDS011;7812;50.072;7.036;2023-07-31T09:35:43;2.63;;;2.00;;
15425;SDS011;7812;50.072;7.036;2023-07-31T09:38:12;3.73;;;2.00;;
15425;SDS011;7812;50.072;7.036;2023-07-31T09:40:39;3.97;;;2.20;;
15425;SDS011;7812;50.072;7.036;2023-07-31T09:43:07;3.50;;;2.50;;
15425;SDS011;7812;50.072;7.036;2023-07-31T09:45:38;2.53;;;2.20;;
15425;SDS011;7812;50.072;7.036;2023-07-31T09:48:09;3.30;;;1.80;;
15425;SDS011;7812;50.072;7.036;2023-07-31T09:50:42;2.30;;;1.67;;
15425;SDS011;7812;50.072;7.036;2023-07-31T09:53:09;2.67;;;1.83;;
15425;SDS011;7812;50.072;7.036;2023-07-31T09:55:35;3.67;;;2.37;;
15425;SDS011;7812;50.072;7.036;2023-07-31T09:58:03;3.90;;;2.10;;
15425;SDS011;7812;50.072;7.036;2023-07-31T10:00:33;3.90;;;2.20;;
15425;SDS011;7812;50.072;7.036;2023-07-31T10:03:00;3.03;;;1.67;;
15425;SDS011;7812;50.072;7.036;2023-07-31T10:05:30;2.70;;;1.77;;
15425;SDS011;7812;50.072;7.036;2023-07-31T10:07:59;1.70;;;1.43;;
15425;SDS011;7812;50.072;7.036;2023-07-31T10:10:25;2.60;;;1.97;;
15425;SDS011;7812;50.072;7.036;2023-07-31T10:12:52;3.13;;;2.13;;
15425;SDS011;7812;50.072;7.036;2023-07-31T10:15:19;4.73;;;2.20;;
15425;SDS011;7812;50.072;7.036;2023-07-31T10:17:48;2.37;;;1.70;;
15425;SDS011;7812;50.072;7.036;2023-07-31T10:20:15;3.27;;;1.73;;
15425;SDS011;7812;50.072;7.036;2023-07-31T10:22:42;2.67;;;1.57;;
15425;SDS011;7812;50.072;7.036;2023-07-31T10:25:13;1.60;;;1.50;;
15425;SDS011;7812;50.072;7.036;2023-07-31T10:27:40;2.80;;;1.77;;
15425;SDS011;7812;50.072;7.036;2023-07-31T10:30:06;2.20;;;1.40;;
15425;SDS011;7812;50.072;7.036;2023-07-31T10:32:34;3.87;;;1.63;;
15425;SDS011;7812;50.072;7.036;2023-07-31T10:35:03;2.30;;;1.60;;
15425;SDS011;7812;50.072;7.036;2023-07-31T10:40:27;4.73;;;1.80;;
15425;SDS011;7812;50.072;7.036;2023-07-31T10:42:53;1.90;;;1.63;;
15425;SDS011;7812;50.072;7.036;2023-07-31T10:45:27;1.50;;;1.20;;
15425;SDS011;7812;50.072;7.036;2023-07-31T10:48:01;2.60;;;1.70;;
15425;SDS011;7812;50.072;7.036;2023-07-31T10:50:29;3.73;;;1.80;;
15425;SDS011;7812;50.072;7.036;2023-07-31T10:52:59;3.40;;;1.60;;
15425;SDS011;7812;50.072;7.036;2023-07-31T10:58:11;3.20;;;1.67;;
15425;SDS011;7812;50.072;7.036;2023-07-31T11:00:41;3.07;;;1.77;;
15425;SDS011;7812;50.072;7.036;2023-07-31T11:11:12;2.43;;;1.60;;
15425;SDS011;7812;50.072;7.036;2023-07-31T11:13:47;2.20;;;1.70;;
15425;SDS011;7812;50.072;7.036;2023-07-31T11:16:14;1.50;;;1.40;;
15425;SDS011;7812;50.072;7.036;2023-07-31T11:18:42;1.90;;;1.43;;
15425;SDS011;7812;50.072;7.036;2023-07-31T11:21:16;2.17;;;1.33;;
15425;SDS011;7812;50.072;7.036;2023-07-31T11:23:46;2.73;;;1.60;;
15425;SDS011;7812;50.072;7.036;2023-07-31T11:26:14;2.13;;;1.20;;
15425;SDS011;7812;50.072;7.036;2023-07-31T11:28:39;2.37;;;1.60;;
15425;SDS011;7812;50.072;7.036;2023-07-31T11:31:08;2.03;;;1.83;;
15425;SDS011;7812;50.072;7.036;2023-07-31T11:33:35;1.87;;;1.57;;
15425;SDS011;7812;50.072;7.036;2023-07-31T11:36:01;2.37;;;1.50;;
15425;SDS011;7812;50.072;7.036;2023-07-31T11:38:28;3.63;;;1.60;;
15425;SDS011;7812;50.072;7.036;2023-07-31T11:40:56;2.63;;;1.70;;
15425;SDS011;7812;50.072;7.036;2023-07-31T11:43:23;2.97;;;1.70;;
15425;SDS011;7812;50.072;7.036;2023-07-31T11:45:51;2.13;;;1.70;;
15425;SDS011;7812;50.072;7.036;2023-07-31T11:48:18;2.30;;;1.50;;
15425;SDS011;7812;50.072;7.036;2023-07-31T11:50:53;1.70;;;1.40;;
15425;SDS011;7812;50.072;7.036;2023-07-31T11:56:17;2.30;;;1.53;;
15425;SDS011;7812;50.072;7.036;2023-07-31T11:58:54;1.87;;;1.50;;
15425;SDS011;7812;50.072;7.036;2023-07-31T12:01:23;4.70;;;2.03;;
15425;SDS011;7812;50.072;7.036;2023-07-31T12:03:50;1.93;;;1.60;;
15425;SDS011;7812;50.072;7.036;2023-07-31T12:06:16;2.87;;;1.60;;
15425;SDS011;7812;50.072;7.036;2023-07-31T12:08:42;3.53;;;1.53;;
15425;SDS011;7812;50.072;7.036;2023-07-31T12:11:08;3.20;;;1.50;;
15425;SDS011;7812;50.072;7.036;2023-07-31T12:13:35;2.87;;;1.20;;
15425;SDS011;7812;50.072;7.036;2023-07-31T12:16:01;3.40;;;1.50;;
15425;SDS011;7812;50.072;7.036;2023-07-31T12:18:29;1.87;;;1.40;;
15425;SDS011;7812;50.072;7.036;2023-07-31T12:20:59;3.37;;;1.50;;
15425;SDS011;7812;50.072;7.036;2023-07-31T12:23:30;1.70;;;1.60;;
15425;SDS011;7812;50.072;7.036;2023-07-31T12:28:36;1.57;;;1.20;;
15425;SDS011;7812;50.072;7.036;2023-07-31T12:31:03;2.57;;;1.67;;
15425;SDS011;7812;50.072;7.036;2023-07-31T12:33:33;3.20;;;1.80;;
15425;SDS011;7812;50.072;7.036;2023-07-31T12:36:03;3.30;;;1.60;;
15425;SDS011;7812;50.072;7.036;2023-07-31T12:38:35;3.63;;;1.97;;
15425;SDS011;7812;50.072;7.036;2023-07-31T12:41:01;2.47;;;1.63;;
15425;SDS011;7812;50.072;7.036;2023-07-31T12:43:27;2.00;;;1.80;;
15425;SDS011;7812;50.072;7.036;2023-07-31T12:45:53;3.17;;;2.00;;
15425;SDS011;7812;50.072;7.036;2023-07-31T12:48:20;2.20;;;1.60;;
15425;SDS011;7812;50.072;7.036;2023-07-31T12:50:45;2.43;;;1.60;;
15425;SDS011;7812;50.072;7.036;2023-07-31T12:53:11;3.63;;;2.23;;
15425;SDS011;7812;50.072;7.036;2023-07-31T12:55:36;3.00;;;1.67;;
15425;SDS011;7812;50.072;7.036;2023-07-31T12:58:02;3.43;;;1.87;;
15425;SDS011;7812;50.072;7.036;2023-07-31T13:00:31;2.13;;;1.63;;
15425;SDS011;7812;50.072;7.036;2023-07-31T13:02:57;2.23;;;2.03;;
15425;SDS011;7812;50.072;7.036;2023-07-31T13:05:23;3.40;;;2.30;;
15425;SDS011;7812;50.072;7.036;2023-07-31T13:07:49;3.17;;;2.00;;
15425;SDS011;7812;50.072;7.036;2023-07-31T13:10:14;4.27;;;2.17;;
15425;SDS011;7812;50.072;7.036;2023-07-31T13:12:40;2.77;;;2.07;;
15425;SDS011;7812;50.072;7.036;2023-07-31T13:15:06;3.30;;;2.03;;
15425;SDS011;7812;50.072;7.036;2023-07-31T13:17:32;3.20;;;2.03;;
15425;SDS011;7812;50.072;7.036;2023-07-31T13:19:58;2.30;;;2.10;;
15425;SDS011;7812;50.072;7.036;2023-07-31T13:22:24;4.07;;;2.40;;
15425;SDS011;7812;50.072;7.036;2023-07-31T13:24:50;2.63;;;1.90;;
15425;SDS011;7812;50.072;7.036;2023-07-31T13:27:16;3.37;;;2.07;;
15425;SDS011;7812;50.072;7.036;2023-07-31T13:29:44;3.27;;;2.30;;
15425;SDS011;7812;50.072;7.036;2023-07-31T13:32:10;2.73;;;2.20;;
15425;SDS011;7812;50.072;7.036;2023-07-31T13:34:36;4.10;;;2.37;;
15425;SDS011;7812;50.072;7.036;2023-07-31T13:37:02;3.47;;;1.93;;
15425;SDS011;7812;50.072;7.036;2023-07-31T13:39:28;2.63;;;2.20;;
15425;SDS011;7812;50.072;7.036;2023-07-31T13:41:54;3.90;;;2.30;;
15425;SDS011;7812;50.072;7.036;2023-07-31T13:44:20;3.63;;;2.00;;
15425;SDS011;7812;50.072;7.036;2023-07-31T13:46:46;3.70;;;2.00;;
15425;SDS011;7812;50.072;7.036;2023-07-31T13:49:11;2.13;;;1.90;;
15425;SDS011;7812;50.072;7.036;2023-07-31T13:51:37;3.50;;;1.70;;
15425;SDS011;7812;50.072;7.036;2023-07-31T13:54:04;2.93;;;1.80;;
15425;SDS011;7812;50.072;7.036;2023-07-31T13:56:31;2.43;;;1.70;;
15425;SDS011;7812;50.072;7.036;2023-07-31T13:58:57;4.27;;;1.97;;
15425;SDS011;7812;50.072;7.036;2023-07-31T14:01:23;2.90;;;1.77;;
15425;SDS011;7812;50.072;7.036;2023-07-31T14:03:49;3.17;;;1.83;;
15425;SDS011;7812;50.072;7.036;2023-07-31T14:06:14;1.83;;;1.60;;
15425;SDS011;7812;50.072;7.036;2023-07-31T14:08:40;1.80;;;1.33;;
15425;SDS011;7812;50.072;7.036;2023-07-31T14:11:06;2.93;;;1.70;;
15425;SDS011;7812;50.072;7.036;2023-07-31T14:13:31;1.57;;;1.40;;
15425;SDS011;7812;50.072;7.036;2023-07-31T14:15:57;4.33;;;2.10;;
15425;SDS011;7812;50.072;7.036;2023-07-31T14:18:23;2.10;;;1.57;;
15425;SDS011;7812;50.072;7.036;2023-07-31T14:20:48;2.90;;;1.90;;
15425;SDS011;7812;50.072;7.036;2023-07-31T14:23:14;3.30;;;2.00;;
15425;SDS011;7812;50.072;7.036;2023-07-31T14:25:40;3.60;;;1.97;;
15425;SDS011;7812;50.072;7.036;2023-07-31T14:28:06;2.10;;;1.90;;
15425;SDS011;7812;50.072;7.036;2023-07-31T14:30:32;2.87;;;1.90;;
15425;SDS011;7812;50.072;7.036;2023-07-31T14:32:57;2.27;;;1.80;;
15425;SDS011;7812;50.072;7.036;2023-07-31T14:35:25;3.43;;;2.50;;
15425;SDS011;7812;50.072;7.036;2023-07-31T14:37:51;3.83;;;2.47;;
15425;SDS011;7812;50.072;7.036;2023-07-31T14:40:16;3.40;;;2.37;;
15425;SDS011;7812;50.072;7.036;2023-07-31T14:42:42;4.73;;;2.20;;
15425;SDS011;7812;50.072;7.036;2023-07-31T14:45:08;3.40;;;2.10;;
15425;SDS011;7812;50.072;7.036;2023-07-31T14:47:35;4.10;;;2.27;;
15425;SDS011;7812;50.072;7.036;2023-07-31T14:50:01;4.67;;;2.70;;
15425;SDS011;7812;50.072;7.036;2023-07-31T14:52:27;3.00;;;2.40;;
15425;SDS011;7812;50.072;7.036;2023-07-31T14:54:53;2.90;;;2.10;;
15425;SDS011;7812;50.072;7.036;2023-07-31T14:57:19;6.00;;;2.83;;
15425;SDS011;7812;50.072;7.036;2023-07-31T14:59:45;3.07;;;2.37;;
15425;SDS011;7812;50.072;7.036;2023-07-31T15:02:11;3.53;;;2.60;;
15425;SDS011;7812;50.072;7.036;2023-07-31T15:04:37;3.53;;;2.50;;
15425;SDS011;7812;50.072;7.036;2023-07-31T15:07:03;3.93;;;2.40;;
15425;SDS011;7812;50.072;7.036;2023-07-31T15:09:29;4.20;;;2.77;;
15425;SDS011;7812;50.072;7.036;2023-07-31T15:11:55;3.77;;;2.40;;
15425;SDS011;7812;50.072;7.036;2023-07-31T15:14:22;2.90;;;2.07;;
15425;SDS011;7812;50.072;7.036;2023-07-31T15:16:49;4.13;;;2.40;;
15425;SDS011;7812;50.072;7.036;2023-07-31T15:19:15;2.93;;;2.40;;
15425;SDS011;7812;50.072;7.036;2023-07-31T15:21:40;3.63;;;2.30;;
15425;SDS011;7812;50.072;7.036;2023-07-31T15:24:06;3.77;;;2.03;;
15425;SDS011;7812;50.072;7.036;2023-07-31T15:26:32;3.83;;;2.10;;
15425;SDS011;7812;50.072;7.036;2023-07-31T15:29:02;4.00;;;2.10;;